Time;durP1;ratioP1;P1;durP2;ratioP2;P2;SDS_P1;SDS_P2;PMS_P1;PMS_P2;Temp;Humidity;BMP_temperature;BMP_pressure;BME280_temperature;BME280_humidity;BME280_pressure;Samples;Min_cycle;Max_cycle;Signal;HPM_P1;HPM_P2
2022/06/12 00:01:54;;;;;;;3.58;1.55;;;;;;;;;;5054272;28;20043;-57
2022/06/12 00:04:20;;;;;;;3.08;1.50;;;;;;;;;;5050682;28;20396;-59
2022/06/12 00:06:47;;;;;;;3.53;1.58;;;;;;;;;;5031324;28;20047;-58
2022/06/12 00:09:13;;;;;;;2.75;1.42;;;;;;;;;;5043105;28;20520;-56
2022/06/12 00:11:40;;;;;;;3.05;1.40;;;;;;;;;;5036462;28;20025;-58
2022/06/12 00:14:06;;;;;;;2.15;1.30;;;;;;;;;;5034028;28;20079;-58
2022/06/12 00:16:34;;;;;;;3.92;1.67;;;;;;;;;;5031111;28;20038;-58
2022/06/12 00:19:00;;;;;;;5.25;1.70;;;;;;;;;;5029338;28;20045;-58
2022/06/12 00:21:27;;;;;;;3.72;2.20;;;;;;;;;;5033183;28;20161;-58
2022/06/12 00:23:52;;;;;;;4.47;1.92;;;;;;;;;;5036827;28;20037;-58
2022/06/12 00:26:30;;;;;;;4.32;2.25;;;;;;;;;;5036804;28;20032;-57
2022/06/12 00:28:59;;;;;;;3.92;1.88;;;;;;;;;;5031611;28;20029;-58
2022/06/12 00:31:26;;;;;;;2.90;1.90;;;;;;;;;;5030791;28;20030;-57
2022/06/12 00:33:52;;;;;;;2.63;1.70;;;;;;;;;;5035410;28;20041;-58
2022/06/12 00:36:18;;;;;;;2.67;2.20;;;;;;;;;;5034029;28;20488;-58
2022/06/12 00:38:44;;;;;;;4.25;2.03;;;;;;;;;;5035564;28;20473;-56
2022/06/12 00:41:10;;;;;;;4.03;2.58;;;;;;;;;;5031948;28;20025;-58
2022/06/12 00:43:37;;;;;;;4.18;1.95;;;;;;;;;;5029340;28;20473;-58
2022/06/12 00:46:04;;;;;;;3.30;1.88;;;;;;;;;;5038267;28;20030;-58
2022/06/12 00:48:32;;;;;;;4.03;1.60;;;;;;;;;;5038888;28;20021;-58
2022/06/12 00:51:01;;;;;;;3.00;1.80;;;;;;;;;;5031097;28;20033;-57
2022/06/12 00:53:38;;;;;;;2.13;1.67;;;;;;;;;;5028360;28;20033;-56
2022/06/12 00:56:08;;;;;;;4.07;1.85;;;;;;;;;;5027063;28;20030;-58
2022/06/12 00:58:37;;;;;;;4.80;1.80;;;;;;;;;;5034889;28;20082;-57
2022/06/12 01:01:05;;;;;;;2.60;1.80;;;;;;;;;;5029119;28;20029;-58
2022/06/12 01:03:31;;;;;;;4.00;1.90;;;;;;;;;;5034939;28;20026;-55
2022/06/12 01:08:42;;;;;;;2.88;1.92;;;;;;;;;;5024634;28;20064;-54
2022/06/12 01:11:11;;;;;;;4.32;2.05;;;;;;;;;;5032756;28;20028;-56
2022/06/12 01:13:39;;;;;;;6.85;2.05;;;;;;;;;;5039093;28;20025;-54
2022/06/12 01:16:08;;;;;;;3.35;1.73;;;;;;;;;;5031302;28;20026;-53
2022/06/12 01:18:38;;;;;;;2.38;1.58;;;;;;;;;;5034605;28;20526;-56
2022/06/12 01:21:10;;;;;;;2.63;1.77;;;;;;;;;;5037471;28;20034;-55
2022/06/12 01:23:46;;;;;;;3.50;1.67;;;;;;;;;;5030867;28;20045;-56
2022/06/12 01:26:11;;;;;;;2.97;1.92;;;;;;;;;;5032509;28;20035;-54
2022/06/12 01:28:44;;;;;;;4.25;2.22;;;;;;;;;;5030671;28;20061;-55
2022/06/12 01:31:10;;;;;;;4.05;2.10;;;;;;;;;;5035734;28;20432;-54
2022/06/12 01:33:55;;;;;;;5.55;2.78;;;;;;;;;;5033068;28;20025;-54
2022/06/12 01:36:31;;;;;;;6.65;3.42;;;;;;;;;;5030676;28;20033;-56
2022/06/12 01:39:03;;;;;;;5.55;2.83;;;;;;;;;;5024826;28;20040;-54
2022/06/12 01:41:35;;;;;;;6.43;2.78;;;;;;;;;;5029314;28;20017;-56
2022/06/12 01:44:14;;;;;;;6.85;2.95;;;;;;;;;;5035349;28;20040;-53
2022/06/12 01:46:45;;;;;;;5.85;2.88;;;;;;;;;;5036605;28;20030;-56
2022/06/12 01:49:19;;;;;;;4.30;3.38;;;;;;;;;;5035698;28;20388;-55
2022/06/12 01:51:48;;;;;;;7.80;3.30;;;;;;;;;;5029999;28;20041;-55
2022/06/12 01:54:18;;;;;;;8.57;3.35;;;;;;;;;;5031397;28;20453;-56
2022/06/12 01:57:04;;;;;;;4.55;3.58;;;;;;;;;;5036121;28;20060;-56
2022/06/12 01:59:38;;;;;;;7.40;3.50;;;;;;;;;;5028931;28;20104;-55
2022/06/12 02:02:11;;;;;;;5.30;3.08;;;;;;;;;;5036321;28;20029;-56
2022/06/12 02:04:44;;;;;;;6.72;3.47;;;;;;;;;;5031642;28;20070;-55
2022/06/12 02:07:20;;;;;;;7.18;3.75;;;;;;;;;;5034920;28;20035;-55
2022/06/12 02:09:52;;;;;;;7.50;3.60;;;;;;;;;;5026742;28;20045;-55
2022/06/12 02:15:07;;;;;;;5.28;3.40;;;;;;;;;;5033000;28;20049;-55
2022/06/12 02:17:40;;;;;;;6.90;2.53;;;;;;;;;;5027948;28;20501;-55
2022/06/12 02:20:08;;;;;;;5.18;2.40;;;;;;;;;;5032695;28;20024;-54
2022/06/12 02:22:36;;;;;;;4.75;2.38;;;;;;;;;;5029710;28;20030;-55
2022/06/12 02:25:16;;;;;;;4.22;2.90;;;;;;;;;;5027103;28;20063;-55
2022/06/12 02:27:51;;;;;;;3.67;2.55;;;;;;;;;;5031051;28;20388;-55
2022/06/12 02:30:19;;;;;;;3.85;2.67;;;;;;;;;;5031697;28;20028;-56
2022/06/12 02:32:48;;;;;;;3.75;2.65;;;;;;;;;;5033202;28;20040;-55
2022/06/12 02:35:32;;;;;;;4.20;2.60;;;;;;;;;;5034297;28;20037;-55
2022/06/12 02:38:03;;;;;;;7.88;3.40;;;;;;;;;;5027914;28;20033;-54
2022/06/12 02:40:35;;;;;;;5.47;3.08;;;;;;;;;;5036195;28;20024;-54
2022/06/12 02:43:06;;;;;;;6.55;3.67;;;;;;;;;;5027403;28;20026;-55
2022/06/12 02:45:33;;;;;;;8.70;4.22;;;;;;;;;;5035265;28;20026;-55
2022/06/12 02:48:00;;;;;;;8.23;4.30;;;;;;;;;;5036335;28;20033;-54
2022/06/12 02:50:28;;;;;;;5.07;3.85;;;;;;;;;;5037659;28;20590;-54
2022/06/12 02:52:57;;;;;;;4.05;3.38;;;;;;;;;;5027703;28;20033;-56
2022/06/12 02:55:22;;;;;;;7.90;4.10;;;;;;;;;;5030668;28;20098;-56
2022/06/12 02:57:48;;;;;;;5.00;3.72;;;;;;;;;;5029287;28;20414;-56
2022/06/12 03:00:41;;;;;;;5.05;3.72;;;;;;;;;;5030208;28;20083;-54
2022/06/12 03:03:12;;;;;;;8.02;4.40;;;;;;;;;;5027376;28;20092;-54
2022/06/12 03:05:40;;;;;;;4.07;3.55;;;;;;;;;;5029565;28;20042;-54
2022/06/12 03:08:14;;;;;;;8.73;4.93;;;;;;;;;;5029903;28;20060;-55
2022/06/12 03:10:43;;;;;;;5.18;3.83;;;;;;;;;;5036999;28;20060;-53
2022/06/12 03:13:10;;;;;;;7.43;4.35;;;;;;;;;;5032374;28;20112;-54
2022/06/12 03:15:38;;;;;;;6.45;4.45;;;;;;;;;;5035127;28;20397;-53
2022/06/12 03:18:07;;;;;;;6.00;3.78;;;;;;;;;;5028091;28;20034;-56
2022/06/12 03:20:38;;;;;;;8.45;4.07;;;;;;;;;;5027527;28;20045;-55
2022/06/12 03:23:12;;;;;;;8.13;4.05;;;;;;;;;;5032205;28;20508;-52
2022/06/12 03:25:41;;;;;;;6.93;3.97;;;;;;;;;;5030885;28;20370;-55
2022/06/12 03:28:23;;;;;;;5.72;4.32;;;;;;;;;;5027476;28;20034;-56
2022/06/12 03:31:02;;;;;;;7.63;4.68;;;;;;;;;;5032566;28;20037;-54
2022/06/12 03:33:44;;;;;;;8.75;4.20;;;;;;;;;;5031189;28;20036;-55
2022/06/12 03:36:17;;;;;;;5.35;3.20;;;;;;;;;;5028643;28;20034;-54
2022/06/12 03:38:47;;;;;;;6.47;4.10;;;;;;;;;;5031320;28;20031;-54
2022/06/12 03:41:19;;;;;;;5.88;3.80;;;;;;;;;;5030718;28;20451;-55
2022/06/12 03:43:45;;;;;;;4.85;3.70;;;;;;;;;;5031725;28;20033;-56
2022/06/12 03:46:30;;;;;;;5.85;4.20;;;;;;;;;;5033169;28;20021;-55
2022/06/12 03:49:02;;;;;;;6.65;3.88;;;;;;;;;;5038235;28;20034;-56
2022/06/12 03:51:43;;;;;;;6.20;3.05;;;;;;;;;;5032408;28;20102;-55
2022/06/12 03:54:14;;;;;;;6.18;4.10;;;;;;;;;;5030169;28;20042;-56
2022/06/12 03:59:43;;;;;;;8.27;4.35;;;;;;;;;;5037702;28;20655;-55
2022/06/12 04:02:11;;;;;;;8.15;3.72;;;;;;;;;;5033051;28;20440;-55
2022/06/12 04:04:37;;;;;;;4.32;3.55;;;;;;;;;;5034118;28;20448;-56
2022/06/12 04:07:06;;;;;;;6.00;4.13;;;;;;;;;;5032615;28;20069;-55
2022/06/12 04:09:34;;;;;;;5.13;3.58;;;;;;;;;;5029584;28;20489;-55
2022/06/12 04:12:02;;;;;;;5.55;3.90;;;;;;;;;;5038563;28;20101;-55
2022/06/12 04:14:31;;;;;;;3.75;3.20;;;;;;;;;;5031543;28;20393;-56
2022/06/12 04:16:59;;;;;;;4.72;3.33;;;;;;;;;;5033888;28;20408;-54
2022/06/12 04:19:25;;;;;;;8.27;4.35;;;;;;;;;;5032632;28;20026;-56
2022/06/12 04:22:00;;;;;;;9.60;5.13;;;;;;;;;;5029407;28;20495;-54
2022/06/12 04:24:42;;;;;;;8.70;4.80;;;;;;;;;;5030811;28;20565;-56
2022/06/12 04:27:12;;;;;;;7.85;4.85;;;;;;;;;;5031884;28;20507;-55
2022/06/12 04:29:39;;;;;;;9.95;4.60;;;;;;;;;;5029293;28;20152;-54
2022/06/12 04:32:07;;;;;;;7.28;4.63;;;;;;;;;;5036426;28;20280;-56
2022/06/12 04:34:38;;;;;;;7.05;4.90;;;;;;;;;;5029815;28;20033;-55
2022/06/12 04:37:10;;;;;;;9.25;5.32;;;;;;;;;;5033060;28;20033;-56
2022/06/12 04:39:36;;;;;;;8.95;4.90;;;;;;;;;;5022503;28;20040;-56
2022/06/12 04:42:03;;;;;;;11.00;4.97;;;;;;;;;;5032842;28;20018;-56
2022/06/12 04:44:29;;;;;;;7.38;4.72;;;;;;;;;;5030453;28;20029;-56
2022/06/12 04:46:56;;;;;;;7.30;4.90;;;;;;;;;;5032991;28;20033;-55
2022/06/12 04:49:24;;;;;;;6.45;4.85;;;;;;;;;;5035758;28;20033;-55
2022/06/12 04:51:52;;;;;;;11.10;6.00;;;;;;;;;;5032077;28;20037;-55
2022/06/12 04:54:18;;;;;;;6.97;5.22;;;;;;;;;;5037143;28;20394;-55
2022/06/12 04:56:44;;;;;;;9.73;5.68;;;;;;;;;;5029336;28;20429;-56
2022/06/12 04:59:11;;;;;;;11.32;6.25;;;;;;;;;;5029282;28;20101;-54
2022/06/12 05:01:37;;;;;;;9.23;6.43;;;;;;;;;;5031672;28;20051;-53
2022/06/12 05:04:04;;;;;;;9.27;5.93;;;;;;;;;;5031281;28;20481;-56
2022/06/12 05:06:31;;;;;;;10.45;6.13;;;;;;;;;;5034774;28;20033;-54
2022/06/12 05:08:57;;;;;;;7.55;5.30;;;;;;;;;;5029807;28;20118;-55
2022/06/12 05:11:23;;;;;;;10.90;5.95;;;;;;;;;;5038411;28;20052;-54
2022/06/12 05:13:49;;;;;;;8.88;6.60;;;;;;;;;;5044975;28;20132;-55
2022/06/12 05:16:26;;;;;;;9.18;6.57;;;;;;;;;;5031041;28;20083;-55
2022/06/12 05:18:52;;;;;;;10.65;6.20;;;;;;;;;;5030846;28;20032;-55
2022/06/12 05:21:18;;;;;;;8.95;5.68;;;;;;;;;;5030235;28;20025;-55
2022/06/12 05:23:44;;;;;;;9.40;6.25;;;;;;;;;;5039349;28;20033;-54
2022/06/12 05:26:13;;;;;;;9.80;6.93;;;;;;;;;;5026468;28;20112;-54
2022/06/12 05:28:39;;;;;;;9.63;6.22;;;;;;;;;;5033041;28;20033;-55
2022/06/12 05:31:05;;;;;;;10.32;7.28;;;;;;;;;;5039146;28;20136;-55
2022/06/12 05:33:31;;;;;;;12.40;7.18;;;;;;;;;;5034654;28;20163;-55
2022/06/12 05:35:57;;;;;;;11.70;6.85;;;;;;;;;;5038389;28;20029;-55
2022/06/12 05:38:24;;;;;;;11.48;7.20;;;;;;;;;;5041325;28;20021;-55
2022/06/12 05:40:50;;;;;;;9.40;6.55;;;;;;;;;;5037690;28;20991;-54
2022/06/12 05:43:16;;;;;;;9.70;7.05;;;;;;;;;;5031057;28;20037;-55
2022/06/12 05:45:42;;;;;;;9.90;7.07;;;;;;;;;;5041422;28;20028;-56
2022/06/12 05:48:13;;;;;;;12.18;6.97;;;;;;;;;;5032377;28;20112;-56
2022/06/12 05:50:46;;;;;;;9.98;7.22;;;;;;;;;;5034740;28;20033;-54
2022/06/12 05:53:12;;;;;;;12.33;7.67;;;;;;;;;;5035594;28;20392;-54
2022/06/12 05:55:38;;;;;;;9.00;6.85;;;;;;;;;;5029053;28;20045;-56
2022/06/12 05:58:04;;;;;;;9.77;7.15;;;;;;;;;;5033003;28;20524;-55
2022/06/12 06:00:31;;;;;;;12.63;6.80;;;;;;;;;;5037580;28;20091;-54
2022/06/12 06:02:57;;;;;;;11.65;6.20;;;;;;;;;;5034560;28;20021;-54
2022/06/12 06:05:23;;;;;;;9.55;7.03;;;;;;;;;;5033229;28;20112;-55
2022/06/12 06:07:49;;;;;;;10.02;7.00;;;;;;;;;;5030859;28;20033;-54
2022/06/12 06:10:17;;;;;;;13.07;7.78;;;;;;;;;;5038979;28;20496;-56
2022/06/12 06:12:43;;;;;;;9.75;6.55;;;;;;;;;;5032171;28;20112;-53
2022/06/12 06:15:10;;;;;;;10.95;6.55;;;;;;;;;;5040569;28;20498;-56
2022/06/12 06:17:36;;;;;;;11.35;6.93;;;;;;;;;;5034273;28;20489;-56
2022/06/12 06:20:02;;;;;;;11.70;7.03;;;;;;;;;;5030216;28;20389;-56
2022/06/12 06:22:29;;;;;;;9.18;6.85;;;;;;;;;;5029554;28;20056;-55
2022/06/12 06:24:55;;;;;;;10.32;6.60;;;;;;;;;;5026429;28;20118;-54
2022/06/12 06:27:21;;;;;;;11.13;6.53;;;;;;;;;;5034385;28;20159;-54
2022/06/12 06:29:47;;;;;;;10.32;6.90;;;;;;;;;;5032795;28;20123;-55
2022/06/12 06:32:13;;;;;;;8.00;6.43;;;;;;;;;;5030408;28;20025;-54
2022/06/12 06:34:40;;;;;;;14.93;7.80;;;;;;;;;;5030095;28;20025;-54
2022/06/12 06:37:07;;;;;;;8.98;6.78;;;;;;;;;;5033247;28;20025;-54
2022/06/12 06:39:33;;;;;;;11.73;6.38;;;;;;;;;;5027842;28;20025;-55
2022/06/12 06:41:59;;;;;;;9.75;6.10;;;;;;;;;;5027768;28;20500;-55
2022/06/12 06:47:10;;;;;;;10.80;6.18;;;;;;;;;;5030983;28;20504;-55
2022/06/12 06:49:36;;;;;;;9.90;6.90;;;;;;;;;;5028019;28;20578;-56
2022/06/12 06:52:03;;;;;;;8.70;6.18;;;;;;;;;;5027208;28;20029;-55
2022/06/12 06:54:29;;;;;;;9.10;5.13;;;;;;;;;;5028891;28;20481;-53
2022/06/12 06:56:55;;;;;;;9.50;5.93;;;;;;;;;;5029443;28;20029;-56
2022/06/12 06:59:21;;;;;;;8.23;6.43;;;;;;;;;;5029793;28;20036;-54
2022/06/12 07:01:47;;;;;;;7.40;5.90;;;;;;;;;;5028477;28;20097;-55
2022/06/12 07:04:13;;;;;;;9.45;6.10;;;;;;;;;;5026868;28;20104;-54
2022/06/12 07:06:40;;;;;;;7.45;5.75;;;;;;;;;;5027747;28;20031;-54
2022/06/12 07:09:06;;;;;;;7.35;5.80;;;;;;;;;;5028121;28;20037;-54
2022/06/12 07:11:32;;;;;;;11.52;6.03;;;;;;;;;;5027854;28;20033;-55
2022/06/12 07:13:59;;;;;;;7.18;5.38;;;;;;;;;;5030186;28;20041;-53
2022/06/12 07:16:25;;;;;;;10.60;6.30;;;;;;;;;;5031597;28;20033;-54
2022/06/12 07:18:51;;;;;;;9.25;6.80;;;;;;;;;;5032870;28;20492;-54
2022/06/12 07:21:17;;;;;;;8.52;6.40;;;;;;;;;;5030443;28;20022;-54
2022/06/12 07:23:44;;;;;;;11.52;7.00;;;;;;;;;;5032218;28;20049;-55
2022/06/12 07:26:21;;;;;;;9.00;6.40;;;;;;;;;;5031791;28;20029;-53
2022/06/12 07:28:47;;;;;;;10.70;6.35;;;;;;;;;;5033595;28;20032;-54
2022/06/12 07:31:13;;;;;;;10.15;6.57;;;;;;;;;;5029721;28;20428;-54
2022/06/12 07:33:39;;;;;;;9.52;5.60;;;;;;;;;;5037602;28;20420;-55
2022/06/12 07:36:07;;;;;;;10.57;6.38;;;;;;;;;;5032001;28;20022;-54
2022/06/12 07:38:33;;;;;;;12.23;6.50;;;;;;;;;;5031008;28;20740;-53
2022/06/12 07:41:00;;;;;;;9.32;6.97;;;;;;;;;;5033106;28;20468;-53
2022/06/12 07:43:27;;;;;;;7.95;6.13;;;;;;;;;;5036623;28;20500;-55
2022/06/12 07:45:54;;;;;;;9.90;6.38;;;;;;;;;;5029481;28;20112;-55
2022/06/12 07:48:21;;;;;;;10.82;6.07;;;;;;;;;;5026329;28;20032;-54
2022/06/12 07:50:50;;;;;;;8.85;6.30;;;;;;;;;;5031498;28;20092;-53
2022/06/12 07:53:17;;;;;;;7.90;5.47;;;;;;;;;;5033247;28;20104;-54
2022/06/12 07:55:43;;;;;;;14.15;6.50;;;;;;;;;;5029616;28;20033;-51
2022/06/12 07:58:09;;;;;;;11.43;6.20;;;;;;;;;;5030475;28;20017;-51
2022/06/12 08:00:35;;;;;;;9.23;5.35;;;;;;;;;;5027376;28;20492;-55
2022/06/12 08:03:02;;;;;;;7.82;5.32;;;;;;;;;;5031438;28;20018;-55
2022/06/12 08:05:29;;;;;;;12.43;6.38;;;;;;;;;;5031323;28;20047;-54
2022/06/12 08:07:55;;;;;;;8.70;5.32;;;;;;;;;;5031306;28;20090;-54
2022/06/12 08:10:21;;;;;;;7.95;4.50;;;;;;;;;;5032951;28;20033;-54
2022/06/12 08:12:47;;;;;;;7.22;5.68;;;;;;;;;;5032274;28;20079;-54
2022/06/12 08:15:16;;;;;;;7.75;4.93;;;;;;;;;;5033469;28;20025;-54
2022/06/12 08:17:42;;;;;;;10.93;4.65;;;;;;;;;;5036816;28;20448;-55
2022/06/12 08:22:54;;;;;;;6.45;3.00;;;;;;;;;;5031630;28;20037;-54
2022/06/12 08:25:20;;;;;;;5.75;3.13;;;;;;;;;;5032033;28;20112;-54
2022/06/12 08:27:47;;;;;;;4.97;3.25;;;;;;;;;;5032509;28;20491;-54
2022/06/12 08:30:13;;;;;;;5.13;3.45;;;;;;;;;;5026335;28;20029;-55
2022/06/12 08:32:41;;;;;;;7.22;3.22;;;;;;;;;;5028069;28;20048;-56
2022/06/12 08:35:10;;;;;;;4.28;3.03;;;;;;;;;;5033262;28;20542;-55
2022/06/12 08:37:37;;;;;;;6.28;3.92;;;;;;;;;;5018472;28;20548;-54
2022/06/12 08:40:04;;;;;;;5.63;2.80;;;;;;;;;;5031899;28;20101;-52
2022/06/12 08:42:42;;;;;;;6.82;2.78;;;;;;;;;;5032019;28;20022;-54
2022/06/12 08:45:14;;;;;;;3.90;1.95;;;;;;;;;;5031748;28;20025;-55
2022/06/12 08:47:53;;;;;;;4.13;2.10;;;;;;;;;;5030586;28;20021;-54
2022/06/12 08:50:38;;;;;;;3.88;2.10;;;;;;;;;;5031541;28;20037;-54
2022/06/12 08:53:09;;;;;;;4.10;1.65;;;;;;;;;;5033056;28;20033;-55
2022/06/12 08:55:40;;;;;;;5.75;2.03;;;;;;;;;;5032622;28;20102;-54
2022/06/12 08:58:12;;;;;;;3.20;1.50;;;;;;;;;;5037425;28;20062;-54
2022/06/12 09:00:39;;;;;;;4.75;1.90;;;;;;;;;;5032552;28;20053;-53
2022/06/12 09:03:06;;;;;;;3.95;2.00;;;;;;;;;;5031765;28;20061;-57
2022/06/12 09:05:38;;;;;;;2.58;1.38;;;;;;;;;;5031675;28;20036;-54
2022/06/12 09:08:14;;;;;;;5.10;1.48;;;;;;;;;;5032133;28;20028;-54
2022/06/12 09:10:46;;;;;;;5.45;1.50;;;;;;;;;;5025008;28;20026;-56
2022/06/12 09:13:29;;;;;;;5.07;1.70;;;;;;;;;;5034442;28;20109;-56
2022/06/12 09:16:05;;;;;;;5.38;1.77;;;;;;;;;;5034370;28;20032;-54
2022/06/12 09:18:51;;;;;;;5.82;1.67;;;;;;;;;;5022955;28;20029;-54
2022/06/12 09:21:23;;;;;;;3.22;1.50;;;;;;;;;;5029814;28;20033;-55
2022/06/12 09:24:01;;;;;;;3.57;1.57;;;;;;;;;;5030163;28;20100;-55
2022/06/12 09:26:34;;;;;;;4.78;1.85;;;;;;;;;;5027596;28;20444;-54
2022/06/12 09:29:11;;;;;;;6.50;1.90;;;;;;;;;;5037465;28;20021;-56
2022/06/12 09:31:47;;;;;;;4.72;1.75;;;;;;;;;;5031321;28;20028;-53
2022/06/12 09:34:19;;;;;;;4.80;1.50;;;;;;;;;;5029297;28;20112;-53
2022/06/12 09:36:56;;;;;;;5.17;1.90;;;;;;;;;;5032771;28;20029;-53
2022/06/12 09:39:31;;;;;;;4.70;1.80;;;;;;;;;;5028928;28;20025;-55
2022/06/12 09:42:15;;;;;;;1.90;1.02;;;;;;;;;;5031626;28;20596;-55
2022/06/12 09:44:50;;;;;;;8.20;1.85;;;;;;;;;;5031782;28;20029;-55
2022/06/12 09:47:25;;;;;;;4.03;1.30;;;;;;;;;;5036538;28;20413;-54
2022/06/12 09:50:27;;;;;;;2.92;1.10;;;;;;;;;;5030512;28;20033;-56
2022/06/12 09:52:56;;;;;;;3.85;1.42;;;;;;;;;;5007626;28;20044;-55
2022/06/12 09:55:26;;;;;;;5.43;1.55;;;;;;;;;;5027891;28;20034;-55
2022/06/12 09:58:11;;;;;;;3.25;1.38;;;;;;;;;;5023801;28;20072;-55
2022/06/12 10:00:40;;;;;;;4.85;1.38;;;;;;;;;;5027117;28;20032;-54
2022/06/12 10:03:09;;;;;;;4.45;1.30;;;;;;;;;;5036091;28;20100;-55
2022/06/12 10:05:40;;;;;;;5.15;1.30;;;;;;;;;;5026366;28;20408;-53
2022/06/12 10:08:11;;;;;;;4.22;1.10;;;;;;;;;;5030678;28;20051;-55
2022/06/12 10:10:40;;;;;;;3.47;1.25;;;;;;;;;;5027375;28;20030;-56
2022/06/12 10:13:09;;;;;;;3.38;1.17;;;;;;;;;;5030675;28;20490;-54
2022/06/12 10:15:37;;;;;;;4.97;0.95;;;;;;;;;;5030559;28;20033;-54
2022/06/12 10:18:06;;;;;;;2.95;1.17;;;;;;;;;;5019782;28;20026;-54
2022/06/12 10:20:40;;;;;;;2.90;1.13;;;;;;;;;;5036372;28;20786;-53
2022/06/12 10:23:06;;;;;;;3.50;1.10;;;;;;;;;;5030583;28;20044;-54
2022/06/12 10:25:37;;;;;;;4.75;1.10;;;;;;;;;;5030980;28;20535;-55
2022/06/12 10:28:19;;;;;;;4.43;1.30;;;;;;;;;;5030999;28;20025;-56
2022/06/12 10:30:47;;;;;;;8.15;1.60;;;;;;;;;;5029817;28;20496;-57
2022/06/12 10:33:24;;;;;;;4.22;0.93;;;;;;;;;;5033176;28;20031;-55
2022/06/12 10:35:58;;;;;;;4.68;0.90;;;;;;;;;;5030647;28;20061;-55
2022/06/12 10:38:25;;;;;;;4.20;1.00;;;;;;;;;;5034289;28;20473;-56
2022/06/12 10:40:53;;;;;;;4.90;1.08;;;;;;;;;;5027929;28;20029;-56
2022/06/12 10:43:27;;;;;;;3.50;1.08;;;;;;;;;;5027082;28;20124;-55
2022/06/12 10:46:02;;;;;;;4.78;1.23;;;;;;;;;;5037849;28;20029;-56
2022/06/12 10:48:34;;;;;;;6.07;1.13;;;;;;;;;;5025813;28;20071;-57
2022/06/12 10:51:01;;;;;;;7.18;1.02;;;;;;;;;;5030623;28;20076;-56
2022/06/12 10:53:28;;;;;;;4.10;1.20;;;;;;;;;;5024140;28;20085;-56
2022/06/12 10:56:00;;;;;;;4.13;1.10;;;;;;;;;;5027896;28;20034;-55
2022/06/12 10:58:37;;;;;;;6.30;1.15;;;;;;;;;;5018684;28;20033;-56
2022/06/12 11:01:08;;;;;;;3.65;0.90;;;;;;;;;;5024909;28;20025;-55
2022/06/12 11:03:40;;;;;;;6.25;1.00;;;;;;;;;;5026902;28;20038;-56
2022/06/12 11:06:32;;;;;;;6.47;1.45;;;;;;;;;;5027145;28;20389;-55
2022/06/12 11:09:06;;;;;;;4.25;1.00;;;;;;;;;;5026032;28;20041;-56
2022/06/12 11:11:54;;;;;;;5.82;1.13;;;;;;;;;;5034419;28;20034;-53
2022/06/12 11:14:28;;;;;;;6.10;1.08;;;;;;;;;;5019109;28;20036;-56
2022/06/12 11:17:06;;;;;;;3.78;1.00;;;;;;;;;;5029002;28;20057;-57
2022/06/12 11:19:55;;;;;;;8.35;1.15;;;;;;;;;;5025681;28;20060;-56
2022/06/12 11:23:00;;;;;;;4.13;1.08;;;;;;;;;;5021938;28;20056;-57
2022/06/12 11:25:51;;;;;;;3.67;1.27;;;;;;;;;;5006112;28;20041;-56
2022/06/12 11:28:29;;;;;;;3.80;0.98;;;;;;;;;;5004624;28;20394;-56
2022/06/12 11:31:30;;;;;;;3.58;0.90;;;;;;;;;;5022791;28;20559;-55
2022/06/12 11:34:01;;;;;;;3.72;1.13;;;;;;;;;;4999433;28;20045;-55
2022/06/12 11:36:32;;;;;;;7.97;1.25;;;;;;;;;;5030947;28;20417;-56
2022/06/12 11:39:21;;;;;;;3.97;1.02;;;;;;;;;;5028682;28;20469;-55
2022/06/12 11:42:06;;;;;;;7.20;1.35;;;;;;;;;;5023629;28;20037;-56
2022/06/12 11:44:41;;;;;;;4.95;1.23;;;;;;;;;;5022561;28;20033;-55
2022/06/12 11:47:12;;;;;;;3.15;1.27;;;;;;;;;;5032187;28;20030;-56
2022/06/12 11:49:58;;;;;;;2.75;1.10;;;;;;;;;;5029602;28;20038;-56
2022/06/12 11:52:38;;;;;;;4.25;1.60;;;;;;;;;;5027740;28;20029;-53
2022/06/12 11:55:18;;;;;;;2.85;1.40;;;;;;;;;;5030978;28;20066;-55
2022/06/12 11:57:55;;;;;;;3.40;1.13;;;;;;;;;;5033748;28;20685;-56
2022/06/12 12:00:27;;;;;;;3.00;1.17;;;;;;;;;;5029038;28;20044;-56
2022/06/12 12:03:17;;;;;;;2.45;1.27;;;;;;;;;;5029978;28;20030;-57
2022/06/12 12:05:46;;;;;;;4.22;1.20;;;;;;;;;;5033048;28;20026;-55
2022/06/12 12:08:15;;;;;;;5.47;1.50;;;;;;;;;;5032661;28;20048;-53
2022/06/12 12:10:47;;;;;;;5.25;1.25;;;;;;;;;;5029180;28;20029;-55
2022/06/12 12:13:15;;;;;;;4.68;1.00;;;;;;;;;;5032724;28;20029;-56
2022/06/12 12:16:00;;;;;;;6.85;1.40;;;;;;;;;;5032220;28;20030;-56
2022/06/12 12:18:33;;;;;;;4.00;1.52;;;;;;;;;;5035905;28;20106;-57
2022/06/12 12:21:00;;;;;;;3.30;1.13;;;;;;;;;;5032621;28;20035;-57
2022/06/12 12:23:29;;;;;;;2.47;0.93;;;;;;;;;;5037278;28;20354;-55
2022/06/12 12:25:59;;;;;;;4.00;1.40;;;;;;;;;;5034159;28;20041;-56
2022/06/12 12:28:34;;;;;;;2.55;1.10;;;;;;;;;;5037400;28;20037;-56
2022/06/12 12:31:02;;;;;;;2.22;0.80;;;;;;;;;;5032003;28;20105;-57
2022/06/12 12:33:28;;;;;;;6.40;1.70;;;;;;;;;;5032994;28;20026;-56
2022/06/12 12:42:10;;;;;;;6.28;1.33;;;;;;;;;;5043385;28;20041;-57
2022/06/12 12:44:39;;;;;;;4.40;1.38;;;;;;;;;;4996561;28;20572;-57
2022/06/12 12:47:16;;;;;;;4.90;0.98;;;;;;;;;;5023751;28;20492;-56
2022/06/12 12:49:42;;;;;;;4.22;1.20;;;;;;;;;;5026303;28;20052;-57
2022/06/12 12:52:19;;;;;;;4.55;1.15;;;;;;;;;;5022354;28;20053;-57
2022/06/12 12:54:51;;;;;;;3.83;1.13;;;;;;;;;;5038854;28;20485;-57
2022/06/12 12:57:19;;;;;;;4.10;1.10;;;;;;;;;;5031136;28;20082;-57
2022/06/12 12:59:51;;;;;;;5.13;1.05;;;;;;;;;;5023603;28;20104;-58
2022/06/12 13:02:26;;;;;;;1.42;0.60;;;;;;;;;;5022311;28;20494;-57
2022/06/12 13:04:54;;;;;;;4.60;0.90;;;;;;;;;;5025397;28;20485;-56
2022/06/12 13:07:35;;;;;;;2.38;0.82;;;;;;;;;;5030135;28;20029;-55
2022/06/12 13:10:16;;;;;;;3.80;0.88;;;;;;;;;;5023029;28;20029;-54
2022/06/12 13:12:57;;;;;;;2.88;0.82;;;;;;;;;;5019199;28;20029;-55
2022/06/12 13:15:52;;;;;;;5.30;0.85;;;;;;;;;;5029532;28;20025;-54
2022/06/12 13:18:21;;;;;;;4.93;0.90;;;;;;;;;;5011626;28;20037;-53
2022/06/12 13:21:07;;;;;;;4.25;0.73;;;;;;;;;;5029588;28;20124;-55
2022/06/12 13:23:50;;;;;;;2.65;1.00;;;;;;;;;;5029910;28;20026;-57
2022/06/12 13:26:18;;;;;;;3.13;0.85;;;;;;;;;;5029520;28;20119;-52
2022/06/12 13:28:52;;;;;;;3.92;1.30;;;;;;;;;;5029156;28;20037;-54
2022/06/12 13:31:20;;;;;;;3.08;0.90;;;;;;;;;;5029753;28;20079;-54
2022/06/12 13:33:57;;;;;;;1.15;0.60;;;;;;;;;;5032225;28;20108;-56
2022/06/12 13:36:26;;;;;;;6.07;0.80;;;;;;;;;;5032100;28;20029;-56
2022/06/12 13:38:55;;;;;;;3.83;0.90;;;;;;;;;;5028828;28;20029;-55
2022/06/12 13:41:27;;;;;;;2.10;0.82;;;;;;;;;;5018607;28;20048;-56
2022/06/12 13:43:55;;;;;;;3.85;0.82;;;;;;;;;;5031679;28;20032;-55
2022/06/12 13:46:31;;;;;;;4.03;0.98;;;;;;;;;;5032226;28;20033;-54
2022/06/12 13:48:58;;;;;;;6.18;0.93;;;;;;;;;;5032065;28;20029;-55
2022/06/12 13:51:29;;;;;;;2.70;0.88;;;;;;;;;;5031450;28;20037;-55
2022/06/12 13:54:11;;;;;;;2.38;0.52;;;;;;;;;;5030242;28;20056;-56
2022/06/12 13:56:42;;;;;;;3.93;0.87;;;;;;;;;;5034684;28;20017;-55
2022/06/12 13:59:11;;;;;;;2.28;0.55;;;;;;;;;;5031955;28;20025;-56
2022/06/12 14:01:37;;;;;;;2.80;0.63;;;;;;;;;;5029501;28;20029;-55
2022/06/12 14:04:04;;;;;;;2.85;0.70;;;;;;;;;;5031847;28;20029;-54
2022/06/12 14:06:32;;;;;;;3.63;0.70;;;;;;;;;;5030459;28;20067;-56
2022/06/12 14:09:18;;;;;;;2.90;0.60;;;;;;;;;;5031690;28;20075;-54
2022/06/12 14:11:45;;;;;;;2.80;0.80;;;;;;;;;;5031151;28;20564;-56
2022/06/12 14:14:37;;;;;;;2.70;0.60;;;;;;;;;;5031438;28;20032;-55
2022/06/12 14:17:04;;;;;;;5.38;0.88;;;;;;;;;;5029470;28;20034;-56
2022/06/12 14:19:31;;;;;;;2.25;0.43;;;;;;;;;;5029878;28;20477;-55
2022/06/12 14:22:19;;;;;;;1.45;0.80;;;;;;;;;;5031239;28;20104;-54
2022/06/12 14:24:57;;;;;;;2.30;0.63;;;;;;;;;;5029701;28;20037;-56
2022/06/12 14:27:24;;;;;;;4.43;0.60;;;;;;;;;;5025138;28;20037;-54
2022/06/12 14:29:50;;;;;;;2.95;0.70;;;;;;;;;;5023322;28;20021;-55
2022/06/12 14:32:25;;;;;;;2.78;0.85;;;;;;;;;;5038814;28;20035;-55
2022/06/12 14:35:07;;;;;;;2.58;0.73;;;;;;;;;;5027702;28;20059;-56
2022/06/12 14:37:33;;;;;;;2.80;0.60;;;;;;;;;;5024701;28;20501;-54
2022/06/12 14:39:59;;;;;;;4.45;0.70;;;;;;;;;;5025888;28;20059;-54
2022/06/12 14:42:26;;;;;;;2.00;0.52;;;;;;;;;;5030969;28;20029;-54
2022/06/12 14:44:53;;;;;;;4.43;0.80;;;;;;;;;;5018822;28;20018;-55
2022/06/12 14:47:19;;;;;;;2.92;0.82;;;;;;;;;;5019402;28;20030;-57
2022/06/12 14:49:46;;;;;;;4.95;0.68;;;;;;;;;;5019173;28;20079;-56
2022/06/12 14:52:12;;;;;;;4.22;0.60;;;;;;;;;;5019475;28;20401;-54
2022/06/12 14:54:38;;;;;;;2.30;0.68;;;;;;;;;;5025617;28;20060;-57
2022/06/12 14:57:08;;;;;;;3.65;1.08;;;;;;;;;;5026758;28;20516;-57
2022/06/12 14:59:34;;;;;;;2.40;0.77;;;;;;;;;;5022837;28;20022;-56
2022/06/12 15:02:01;;;;;;;3.63;0.82;;;;;;;;;;5017613;28;20079;-57
2022/06/12 15:04:27;;;;;;;4.85;0.88;;;;;;;;;;5017949;28;20025;-56
2022/06/12 15:06:55;;;;;;;3.17;0.98;;;;;;;;;;5017699;28;20044;-57
2022/06/12 15:09:21;;;;;;;3.38;0.77;;;;;;;;;;5027191;28;20037;-57
2022/06/12 15:11:47;;;;;;;4.70;0.73;;;;;;;;;;5017499;28;20080;-56
2022/06/12 15:14:15;;;;;;;3.00;1.17;;;;;;;;;;5020239;28;20539;-57
2022/06/12 15:16:41;;;;;;;3.75;0.70;;;;;;;;;;5023573;28;20025;-55
2022/06/12 15:19:07;;;;;;;2.22;0.68;;;;;;;;;;5022582;28;20030;-56
2022/06/12 15:21:35;;;;;;;4.45;0.98;;;;;;;;;;5026942;28;20044;-56
2022/06/12 15:24:02;;;;;;;7.55;1.15;;;;;;;;;;5025114;28;20458;-56